sensor_id;sensor_type;location;lat;lon;timestamp;P1;durP1;ratioP1;P2;durP2;ratioP2
30553;SDS011;17335;50.720;7.452;2023-08-07T00:01:45;11.13;;;2.92;;
30553;SDS011;17335;50.720;7.452;2023-08-07T00:04:12;8.35;;;2.50;;
30553;SDS011;17335;50.720;7.452;2023-08-07T00:06:38;13.73;;;2.67;;
30553;SDS011;17335;50.720;7.452;2023-08-07T00:09:06;9.13;;;2.72;;
30553;SDS011;17335;50.720;7.452;2023-08-07T00:11:33;14.32;;;2.55;;
30553;SDS011;17335;50.720;7.452;2023-08-07T00:14:00;15.77;;;3.13;;
30553;SDS011;17335;50.720;7.452;2023-08-07T00:16:27;8.18;;;2.65;;
30553;SDS011;17335;50.720;7.452;2023-08-07T00:18:53;9.75;;;2.67;;
30553;SDS011;17335;50.720;7.452;2023-08-07T00:21:22;8.20;;;2.55;;
30553;SDS011;17335;50.720;7.452;2023-08-07T00:23:49;19.65;;;3.28;;
30553;SDS011;17335;50.720;7.452;2023-08-07T00:26:16;8.20;;;2.58;;
30553;SDS011;17335;50.720;7.452;2023-08-07T00:28:42;17.40;;;3.58;;
30553;SDS011;17335;50.720;7.452;2023-08-07T00:31:10;11.57;;;3.33;;
30553;SDS011;17335;50.720;7.452;2023-08-07T00:33:36;10.75;;;2.95;;
30553;SDS011;17335;50.720;7.452;2023-08-07T00:36:03;14.40;;;3.08;;
30553;SDS011;17335;50.720;7.452;2023-08-07T00:38:31;10.85;;;2.92;;
30553;SDS011;17335;50.720;7.452;2023-08-07T00:40:57;13.75;;;2.65;;
30553;SDS011;17335;50.720;7.452;2023-08-07T00:43:26;13.60;;;2.80;;
30553;SDS011;17335;50.720;7.452;2023-08-07T00:45:52;15.88;;;2.60;;
30553;SDS011;17335;50.720;7.452;2023-08-07T00:48:19;15.77;;;2.83;;
30553;SDS011;17335;50.720;7.452;2023-08-07T00:50:46;8.95;;;2.45;;
30553;SDS011;17335;50.720;7.452;2023-08-07T00:53:14;7.53;;;2.45;;
30553;SDS011;17335;50.720;7.452;2023-08-07T00:55:41;22.02;;;3.72;;
30553;SDS011;17335;50.720;7.452;2023-08-07T00:58:08;11.48;;;2.50;;
30553;SDS011;17335;50.720;7.452;2023-08-07T01:00:35;10.75;;;2.47;;
30553;SDS011;17335;50.720;7.452;2023-08-07T01:03:05;10.60;;;2.70;;
30553;SDS011;17335;50.720;7.452;2023-08-07T01:05:33;8.80;;;2.30;;
30553;SDS011;17335;50.720;7.452;2023-08-07T01:08:00;7.15;;;2.45;;
30553;SDS011;17335;50.720;7.452;2023-08-07T01:10:32;6.88;;;3.13;;
30553;SDS011;17335;50.720;7.452;2023-08-07T01:13:40;14.32;;;3.22;;
30553;SDS011;17335;50.720;7.452;2023-08-07T01:16:04;15.38;;;3.90;;
30553;SDS011;17335;50.720;7.452;2023-08-07T01:18:37;8.90;;;2.85;;
30553;SDS011;17335;50.720;7.452;2023-08-07T01:21:04;8.90;;;3.13;;
30553;SDS011;17335;50.720;7.452;2023-08-07T01:23:31;11.73;;;2.67;;
30553;SDS011;17335;50.720;7.452;2023-08-07T01:25:58;10.10;;;2.42;;
30553;SDS011;17335;50.720;7.452;2023-08-07T01:28:27;14.93;;;3.20;;
30553;SDS011;17335;50.720;7.452;2023-08-07T01:31:03;11.27;;;2.90;;
30553;SDS011;17335;50.720;7.452;2023-08-07T01:36:38;12.97;;;3.13;;
30553;SDS011;17335;50.720;7.452;2023-08-07T01:39:06;7.70;;;2.85;;
30553;SDS011;17335;50.720;7.452;2023-08-07T01:41:34;8.07;;;3.45;;
30553;SDS011;17335;50.720;7.452;2023-08-07T01:44:02;11.13;;;3.22;;
30553;SDS011;17335;50.720;7.452;2023-08-07T01:46:30;9.38;;;2.42;;
30553;SDS011;17335;50.720;7.452;2023-08-07T01:48:56;11.07;;;2.95;;
30553;SDS011;17335;50.720;7.452;2023-08-07T01:51:23;15.23;;;2.97;;
30553;SDS011;17335;50.720;7.452;2023-08-07T01:53:49;7.97;;;2.92;;
30553;SDS011;17335;50.720;7.452;2023-08-07T01:56:16;11.70;;;3.13;;
30553;SDS011;17335;50.720;7.452;2023-08-07T01:58:43;7.38;;;2.67;;
30553;SDS011;17335;50.720;7.452;2023-08-07T02:01:10;12.00;;;3.17;;
30553;SDS011;17335;50.720;7.452;2023-08-07T02:03:36;10.02;;;3.58;;
30553;SDS011;17335;50.720;7.452;2023-08-07T02:06:03;12.05;;;3.00;;
30553;SDS011;17335;50.720;7.452;2023-08-07T02:08:29;11.80;;;3.05;;
30553;SDS011;17335;50.720;7.452;2023-08-07T02:10:56;13.93;;;2.85;;
30553;SDS011;17335;50.720;7.452;2023-08-07T02:13:23;10.70;;;3.08;;
30553;SDS011;17335;50.720;7.452;2023-08-07T02:15:50;12.15;;;3.10;;
30553;SDS011;17335;50.720;7.452;2023-08-07T02:18:17;7.38;;;2.90;;
30553;SDS011;17335;50.720;7.452;2023-08-07T02:20:46;10.88;;;3.50;;
30553;SDS011;17335;50.720;7.452;2023-08-07T02:23:12;7.80;;;2.42;;
30553;SDS011;17335;50.720;7.452;2023-08-07T02:25:39;11.38;;;3.35;;
30553;SDS011;17335;50.720;7.452;2023-08-07T02:28:05;12.48;;;4.22;;
30553;SDS011;17335;50.720;7.452;2023-08-07T02:30:32;10.88;;;2.90;;
30553;SDS011;17335;50.720;7.452;2023-08-07T02:32:58;8.02;;;2.40;;
30553;SDS011;17335;50.720;7.452;2023-08-07T02:35:25;8.85;;;2.63;;
30553;SDS011;17335;50.720;7.452;2023-08-07T02:37:52;10.85;;;3.05;;
30553;SDS011;17335;50.720;7.452;2023-08-07T02:40:18;12.88;;;2.88;;
30553;SDS011;17335;50.720;7.452;2023-08-07T02:42:45;9.43;;;3.10;;
30553;SDS011;17335;50.720;7.452;2023-08-07T02:45:12;10.85;;;2.97;;
30553;SDS011;17335;50.720;7.452;2023-08-07T02:47:38;10.70;;;3.00;;
30553;SDS011;17335;50.720;7.452;2023-08-07T02:50:05;18.67;;;4.68;;
30553;SDS011;17335;50.720;7.452;2023-08-07T02:52:32;10.85;;;3.13;;
30553;SDS011;17335;50.720;7.452;2023-08-07T02:54:58;15.60;;;3.28;;
30553;SDS011;17335;50.720;7.452;2023-08-07T02:57:26;10.45;;;3.47;;
30553;SDS011;17335;50.720;7.452;2023-08-07T02:59:52;12.48;;;3.05;;
30553;SDS011;17335;50.720;7.452;2023-08-07T03:02:19;14.70;;;3.53;;
30553;SDS011;17335;50.720;7.452;2023-08-07T03:04:46;15.25;;;3.03;;
30553;SDS011;17335;50.720;7.452;2023-08-07T03:07:12;11.50;;;3.40;;
30553;SDS011;17335;50.720;7.452;2023-08-07T03:09:39;12.38;;;3.10;;
30553;SDS011;17335;50.720;7.452;2023-08-07T03:12:06;15.95;;;4.45;;
30553;SDS011;17335;50.720;7.452;2023-08-07T03:14:32;10.38;;;3.15;;
30553;SDS011;17335;50.720;7.452;2023-08-07T03:17:00;16.20;;;3.10;;
30553;SDS011;17335;50.720;7.452;2023-08-07T03:19:26;10.73;;;3.20;;
30553;SDS011;17335;50.720;7.452;2023-08-07T03:21:53;13.40;;;3.28;;
30553;SDS011;17335;50.720;7.452;2023-08-07T03:24:20;6.82;;;2.78;;
30553;SDS011;17335;50.720;7.452;2023-08-07T03:26:47;7.65;;;3.10;;
30553;SDS011;17335;50.720;7.452;2023-08-07T03:29:15;11.60;;;3.08;;
30553;SDS011;17335;50.720;7.452;2023-08-07T03:31:42;9.38;;;2.60;;
30553;SDS011;17335;50.720;7.452;2023-08-07T03:34:08;11.07;;;3.22;;
30553;SDS011;17335;50.720;7.452;2023-08-07T03:36:35;17.58;;;3.85;;
30553;SDS011;17335;50.720;7.452;2023-08-07T03:39:01;10.77;;;3.38;;
30553;SDS011;17335;50.720;7.452;2023-08-07T03:41:28;21.05;;;3.42;;
30553;SDS011;17335;50.720;7.452;2023-08-07T03:43:54;15.23;;;2.95;;
30553;SDS011;17335;50.720;7.452;2023-08-07T03:46:21;9.20;;;3.03;;
30553;SDS011;17335;50.720;7.452;2023-08-07T03:48:47;7.25;;;2.60;;
30553;SDS011;17335;50.720;7.452;2023-08-07T03:51:14;11.13;;;2.78;;
30553;SDS011;17335;50.720;7.452;2023-08-07T03:53:44;11.40;;;3.00;;
30553;SDS011;17335;50.720;7.452;2023-08-07T03:56:10;10.75;;;2.83;;
30553;SDS011;17335;50.720;7.452;2023-08-07T03:58:37;10.40;;;3.10;;
30553;SDS011;17335;50.720;7.452;2023-08-07T04:01:04;11.98;;;3.00;;
30553;SDS011;17335;50.720;7.452;2023-08-07T04:03:30;25.98;;;3.90;;
30553;SDS011;17335;50.720;7.452;2023-08-07T04:05:57;12.65;;;2.80;;
30553;SDS011;17335;50.720;7.452;2023-08-07T04:08:23;11.05;;;3.47;;
30553;SDS011;17335;50.720;7.452;2023-08-07T04:10:59;11.05;;;2.88;;
30553;SDS011;17335;50.720;7.452;2023-08-07T04:13:32;17.23;;;3.10;;
30553;SDS011;17335;50.720;7.452;2023-08-07T04:15:58;10.48;;;3.90;;
30553;SDS011;17335;50.720;7.452;2023-08-07T04:18:27;13.35;;;3.10;;
30553;SDS011;17335;50.720;7.452;2023-08-07T04:20:53;10.15;;;3.38;;
30553;SDS011;17335;50.720;7.452;2023-08-07T04:23:21;7.80;;;2.80;;
30553;SDS011;17335;50.720;7.452;2023-08-07T04:25:48;8.20;;;2.85;;
30553;SDS011;17335;50.720;7.452;2023-08-07T04:28:16;10.07;;;2.90;;
30553;SDS011;17335;50.720;7.452;2023-08-07T04:30:43;9.48;;;3.38;;
30553;SDS011;17335;50.720;7.452;2023-08-07T04:33:11;8.02;;;2.67;;
30553;SDS011;17335;50.720;7.452;2023-08-07T04:35:39;7.55;;;3.00;;
30553;SDS011;17335;50.720;7.452;2023-08-07T04:38:06;16.10;;;3.40;;
30553;SDS011;17335;50.720;7.452;2023-08-07T04:40:32;11.20;;;3.00;;
30553;SDS011;17335;50.720;7.452;2023-08-07T04:42:59;10.63;;;3.00;;
30553;SDS011;17335;50.720;7.452;2023-08-07T04:45:25;10.93;;;2.90;;
30553;SDS011;17335;50.720;7.452;2023-08-07T04:47:52;7.15;;;2.78;;
30553;SDS011;17335;50.720;7.452;2023-08-07T04:50:18;4.95;;;2.20;;
30553;SDS011;17335;50.720;7.452;2023-08-07T04:52:45;4.35;;;2.25;;
30553;SDS011;17335;50.720;7.452;2023-08-07T04:55:11;3.67;;;2.00;;
30553;SDS011;17335;50.720;7.452;2023-08-07T04:57:38;8.32;;;2.88;;
30553;SDS011;17335;50.720;7.452;2023-08-07T05:00:05;11.25;;;2.50;;
30553;SDS011;17335;50.720;7.452;2023-08-07T05:02:32;4.82;;;2.00;;
30553;SDS011;17335;50.720;7.452;2023-08-07T05:04:58;6.03;;;2.35;;
30553;SDS011;17335;50.720;7.452;2023-08-07T05:07:25;6.68;;;2.78;;
30553;SDS011;17335;50.720;7.452;2023-08-07T05:09:52;8.98;;;2.63;;
30553;SDS011;17335;50.720;7.452;2023-08-07T05:12:19;7.15;;;2.55;;
30553;SDS011;17335;50.720;7.452;2023-08-07T05:14:46;7.75;;;2.63;;
30553;SDS011;17335;50.720;7.452;2023-08-07T05:17:12;6.60;;;2.80;;
30553;SDS011;17335;50.720;7.452;2023-08-07T05:19:40;10.95;;;2.90;;
30553;SDS011;17335;50.720;7.452;2023-08-07T05:22:06;9.68;;;2.95;;
30553;SDS011;17335;50.720;7.452;2023-08-07T05:24:33;8.18;;;2.90;;
30553;SDS011;17335;50.720;7.452;2023-08-07T05:27:05;9.05;;;3.10;;
30553;SDS011;17335;50.720;7.452;2023-08-07T05:29:34;14.05;;;4.53;;
30553;SDS011;17335;50.720;7.452;2023-08-07T05:34:40;12.82;;;3.53;;
30553;SDS011;17335;50.720;7.452;2023-08-07T05:37:07;12.40;;;3.50;;
30553;SDS011;17335;50.720;7.452;2023-08-07T05:39:34;8.32;;;3.08;;
30553;SDS011;17335;50.720;7.452;2023-08-07T05:42:01;10.63;;;3.30;;
30553;SDS011;17335;50.720;7.452;2023-08-07T05:44:28;12.13;;;2.60;;
30553;SDS011;17335;50.720;7.452;2023-08-07T05:46:55;12.73;;;3.63;;
30553;SDS011;17335;50.720;7.452;2023-08-07T05:49:22;10.18;;;3.20;;
30553;SDS011;17335;50.720;7.452;2023-08-07T05:51:53;13.68;;;2.88;;
30553;SDS011;17335;50.720;7.452;2023-08-07T05:54:20;6.93;;;2.80;;
30553;SDS011;17335;50.720;7.452;2023-08-07T05:56:47;9.93;;;2.95;;
30553;SDS011;17335;50.720;7.452;2023-08-07T05:59:13;7.80;;;2.50;;
30553;SDS011;17335;50.720;7.452;2023-08-07T06:01:40;7.47;;;2.55;;
30553;SDS011;17335;50.720;7.452;2023-08-07T06:04:07;9.88;;;3.25;;
30553;SDS011;17335;50.720;7.452;2023-08-07T06:06:35;15.35;;;3.55;;
30553;SDS011;17335;50.720;7.452;2023-08-07T06:09:02;10.68;;;2.78;;
30553;SDS011;17335;50.720;7.452;2023-08-07T06:11:30;10.48;;;2.53;;
30553;SDS011;17335;50.720;7.452;2023-08-07T06:13:56;11.05;;;3.15;;
30553;SDS011;17335;50.720;7.452;2023-08-07T06:16:23;12.05;;;2.70;;
30553;SDS011;17335;50.720;7.452;2023-08-07T06:18:50;6.63;;;2.85;;
30553;SDS011;17335;50.720;7.452;2023-08-07T06:21:16;13.57;;;3.20;;
30553;SDS011;17335;50.720;7.452;2023-08-07T06:23:43;9.63;;;3.25;;
30553;SDS011;17335;50.720;7.452;2023-08-07T06:26:09;11.32;;;3.20;;
30553;SDS011;17335;50.720;7.452;2023-08-07T06:28:36;14.68;;;3.17;;
30553;SDS011;17335;50.720;7.452;2023-08-07T06:31:05;14.68;;;3.30;;
30553;SDS011;17335;50.720;7.452;2023-08-07T06:33:33;9.32;;;3.05;;
30553;SDS011;17335;50.720;7.452;2023-08-07T06:36:01;11.27;;;2.83;;
30553;SDS011;17335;50.720;7.452;2023-08-07T06:38:29;9.60;;;2.80;;
30553;SDS011;17335;50.720;7.452;2023-08-07T06:40:56;12.10;;;2.65;;
30553;SDS011;17335;50.720;7.452;2023-08-07T06:43:22;14.57;;;3.33;;
30553;SDS011;17335;50.720;7.452;2023-08-07T06:45:49;11.25;;;2.67;;
30553;SDS011;17335;50.720;7.452;2023-08-07T06:48:17;8.77;;;3.00;;
30553;SDS011;17335;50.720;7.452;2023-08-07T06:50:43;10.27;;;3.05;;
30553;SDS011;17335;50.720;7.452;2023-08-07T06:53:10;12.98;;;2.83;;
30553;SDS011;17335;50.720;7.452;2023-08-07T06:55:37;10.80;;;3.35;;
30553;SDS011;17335;50.720;7.452;2023-08-07T06:58:03;8.02;;;2.83;;
30553;SDS011;17335;50.720;7.452;2023-08-07T07:00:30;7.15;;;2.45;;
30553;SDS011;17335;50.720;7.452;2023-08-07T07:02:57;10.57;;;2.55;;
30553;SDS011;17335;50.720;7.452;2023-08-07T07:05:24;9.38;;;2.55;;
30553;SDS011;17335;50.720;7.452;2023-08-07T07:07:50;13.73;;;2.88;;
30553;SDS011;17335;50.720;7.452;2023-08-07T07:10:17;8.15;;;2.60;;
30553;SDS011;17335;50.720;7.452;2023-08-07T07:12:43;12.85;;;3.30;;
30553;SDS011;17335;50.720;7.452;2023-08-07T07:15:10;8.85;;;2.85;;
30553;SDS011;17335;50.720;7.452;2023-08-07T07:17:37;12.02;;;2.88;;
30553;SDS011;17335;50.720;7.452;2023-08-07T07:20:04;8.82;;;2.95;;
30553;SDS011;17335;50.720;7.452;2023-08-07T07:22:31;8.75;;;2.70;;
30553;SDS011;17335;50.720;7.452;2023-08-07T07:24:57;6.45;;;3.28;;
30553;SDS011;17335;50.720;7.452;2023-08-07T07:27:25;13.75;;;3.03;;
30553;SDS011;17335;50.720;7.452;2023-08-07T07:29:52;12.75;;;2.75;;
30553;SDS011;17335;50.720;7.452;2023-08-07T07:32:18;5.75;;;2.50;;
30553;SDS011;17335;50.720;7.452;2023-08-07T07:34:45;9.60;;;2.45;;
30553;SDS011;17335;50.720;7.452;2023-08-07T07:37:13;15.57;;;2.80;;
30553;SDS011;17335;50.720;7.452;2023-08-07T07:39:40;7.93;;;2.90;;
30553;SDS011;17335;50.720;7.452;2023-08-07T07:42:07;12.02;;;2.72;;
30553;SDS011;17335;50.720;7.452;2023-08-07T07:44:33;9.93;;;3.78;;
30553;SDS011;17335;50.720;7.452;2023-08-07T07:47:02;10.07;;;3.47;;
30553;SDS011;17335;50.720;7.452;2023-08-07T07:49:29;7.70;;;2.63;;
30553;SDS011;17335;50.720;7.452;2023-08-07T07:51:55;6.85;;;2.65;;
30553;SDS011;17335;50.720;7.452;2023-08-07T07:54:22;8.57;;;2.05;;
30553;SDS011;17335;50.720;7.452;2023-08-07T07:56:48;6.00;;;2.53;;
30553;SDS011;17335;50.720;7.452;2023-08-07T07:59:14;8.90;;;2.58;;
30553;SDS011;17335;50.720;7.452;2023-08-07T08:01:41;7.90;;;2.70;;
30553;SDS011;17335;50.720;7.452;2023-08-07T08:04:08;4.90;;;2.22;;
30553;SDS011;17335;50.720;7.452;2023-08-07T08:06:36;9.35;;;2.40;;
30553;SDS011;17335;50.720;7.452;2023-08-07T08:09:03;10.18;;;2.75;;
30553;SDS011;17335;50.720;7.452;2023-08-07T08:11:32;8.40;;;2.45;;
30553;SDS011;17335;50.720;7.452;2023-08-07T08:13:59;9.25;;;2.83;;
30553;SDS011;17335;50.720;7.452;2023-08-07T08:16:25;6.18;;;2.50;;
30553;SDS011;17335;50.720;7.452;2023-08-07T08:18:52;8.27;;;2.55;;
30553;SDS011;17335;50.720;7.452;2023-08-07T08:21:18;10.00;;;3.03;;
30553;SDS011;17335;50.720;7.452;2023-08-07T08:23:45;11.48;;;3.22;;
30553;SDS011;17335;50.720;7.452;2023-08-07T08:26:11;5.90;;;2.45;;
30553;SDS011;17335;50.720;7.452;2023-08-07T08:28:38;9.90;;;2.90;;
30553;SDS011;17335;50.720;7.452;2023-08-07T08:31:05;7.65;;;2.83;;
30553;SDS011;17335;50.720;7.452;2023-08-07T08:33:32;12.40;;;3.13;;
30553;SDS011;17335;50.720;7.452;2023-08-07T08:35:59;11.95;;;3.45;;
30553;SDS011;17335;50.720;7.452;2023-08-07T08:38:25;10.60;;;2.95;;
30553;SDS011;17335;50.720;7.452;2023-08-07T08:40:58;9.45;;;2.85;;
30553;SDS011;17335;50.720;7.452;2023-08-07T08:43:28;8.82;;;2.58;;
30553;SDS011;17335;50.720;7.452;2023-08-07T08:46:01;8.73;;;2.92;;
30553;SDS011;17335;50.720;7.452;2023-08-07T08:48:29;13.02;;;2.75;;
30553;SDS011;17335;50.720;7.452;2023-08-07T08:51:00;12.90;;;2.53;;
30553;SDS011;17335;50.720;7.452;2023-08-07T08:53:28;8.88;;;2.60;;
30553;SDS011;17335;50.720;7.452;2023-08-07T08:55:55;7.82;;;2.63;;
30553;SDS011;17335;50.720;7.452;2023-08-07T08:58:21;9.95;;;4.03;;
30553;SDS011;17335;50.720;7.452;2023-08-07T09:00:49;12.95;;;2.88;;
30553;SDS011;17335;50.720;7.452;2023-08-07T09:03:17;14.68;;;2.78;;
30553;SDS011;17335;50.720;7.452;2023-08-07T09:05:45;7.35;;;2.60;;
30553;SDS011;17335;50.720;7.452;2023-08-07T09:08:13;9.68;;;2.95;;
30553;SDS011;17335;50.720;7.452;2023-08-07T09:10:40;10.88;;;3.08;;
30553;SDS011;17335;50.720;7.452;2023-08-07T09:13:09;9.02;;;2.75;;
30553;SDS011;17335;50.720;7.452;2023-08-07T09:15:40;6.72;;;2.80;;
30553;SDS011;17335;50.720;7.452;2023-08-07T09:18:13;8.13;;;2.65;;
30553;SDS011;17335;50.720;7.452;2023-08-07T09:20:41;10.38;;;3.38;;
30553;SDS011;17335;50.720;7.452;2023-08-07T09:23:08;16.23;;;3.67;;
30553;SDS011;17335;50.720;7.452;2023-08-07T09:25:35;9.70;;;2.97;;
30553;SDS011;17335;50.720;7.452;2023-08-07T09:28:03;11.57;;;2.72;;
30553;SDS011;17335;50.720;7.452;2023-08-07T09:30:31;11.90;;;3.50;;
30553;SDS011;17335;50.720;7.452;2023-08-07T09:32:59;8.70;;;2.53;;
30553;SDS011;17335;50.720;7.452;2023-08-07T09:35:27;7.65;;;3.15;;
30553;SDS011;17335;50.720;7.452;2023-08-07T09:37:59;8.98;;;3.30;;
30553;SDS011;17335;50.720;7.452;2023-08-07T09:40:26;9.45;;;3.15;;
30553;SDS011;17335;50.720;7.452;2023-08-07T09:42:53;12.13;;;3.17;;
30553;SDS011;17335;50.720;7.452;2023-08-07T09:45:27;10.68;;;3.30;;
30553;SDS011;17335;50.720;7.452;2023-08-07T09:47:59;10.55;;;2.85;;
30553;SDS011;17335;50.720;7.452;2023-08-07T09:50:26;9.43;;;3.17;;
30553;SDS011;17335;50.720;7.452;2023-08-07T09:52:54;7.10;;;3.10;;
30553;SDS011;17335;50.720;7.452;2023-08-07T09:55:22;11.52;;;3.25;;
30553;SDS011;17335;50.720;7.452;2023-08-07T09:57:49;13.20;;;3.13;;
30553;SDS011;17335;50.720;7.452;2023-08-07T10:00:16;8.07;;;3.17;;
30553;SDS011;17335;50.720;7.452;2023-08-07T10:02:46;11.63;;;2.75;;
30553;SDS011;17335;50.720;7.452;2023-08-07T10:05:14;7.40;;;2.97;;
30553;SDS011;17335;50.720;7.452;2023-08-07T10:07:42;5.90;;;2.63;;
30553;SDS011;17335;50.720;7.452;2023-08-07T10:10:08;12.05;;;3.05;;
30553;SDS011;17335;50.720;7.452;2023-08-07T10:12:37;18.15;;;4.97;;
30553;SDS011;17335;50.720;7.452;2023-08-07T10:15:04;9.02;;;2.97;;
30553;SDS011;17335;50.720;7.452;2023-08-07T10:17:31;10.00;;;3.30;;
30553;SDS011;17335;50.720;7.452;2023-08-07T10:19:59;11.25;;;3.13;;
30553;SDS011;17335;50.720;7.452;2023-08-07T10:22:26;12.32;;;3.00;;
30553;SDS011;17335;50.720;7.452;2023-08-07T10:24:56;6.78;;;2.80;;
30553;SDS011;17335;50.720;7.452;2023-08-07T10:27:25;10.68;;;2.90;;
30553;SDS011;17335;50.720;7.452;2023-08-07T10:29:55;9.27;;;3.00;;
30553;SDS011;17335;50.720;7.452;2023-08-07T10:32:24;10.13;;;3.15;;
30553;SDS011;17335;50.720;7.452;2023-08-07T10:34:53;13.13;;;3.40;;
30553;SDS011;17335;50.720;7.452;2023-08-07T10:40:04;12.65;;;3.20;;
30553;SDS011;17335;50.720;7.452;2023-08-07T10:45:27;9.73;;;2.70;;
30553;SDS011;17335;50.720;7.452;2023-08-07T10:48:01;8.68;;;2.47;;
30553;SDS011;17335;50.720;7.452;2023-08-07T10:50:29;8.77;;;2.75;;
30553;SDS011;17335;50.720;7.452;2023-08-07T10:53:02;12.20;;;3.00;;
30553;SDS011;17335;50.720;7.452;2023-08-07T10:55:45;6.25;;;3.05;;
30553;SDS011;17335;50.720;7.452;2023-08-07T10:58:23;12.82;;;2.38;;
30553;SDS011;17335;50.720;7.452;2023-08-07T11:00:52;10.07;;;2.45;;
30553;SDS011;17335;50.720;7.452;2023-08-07T11:03:42;7.10;;;2.53;;
30553;SDS011;17335;50.720;7.452;2023-08-07T11:06:09;12.52;;;2.78;;
30553;SDS011;17335;50.720;7.452;2023-08-07T11:08:37;8.82;;;2.85;;
30553;SDS011;17335;50.720;7.452;2023-08-07T11:11:05;8.60;;;2.90;;
30553;SDS011;17335;50.720;7.452;2023-08-07T11:13:35;12.77;;;3.60;;
30553;SDS011;17335;50.720;7.452;2023-08-07T11:16:02;7.10;;;2.60;;
30553;SDS011;17335;50.720;7.452;2023-08-07T11:18:30;8.43;;;2.90;;
30553;SDS011;17335;50.720;7.452;2023-08-07T11:20:56;7.88;;;3.20;;
30553;SDS011;17335;50.720;7.452;2023-08-07T11:23:27;6.93;;;2.58;;
30553;SDS011;17335;50.720;7.452;2023-08-07T11:25:54;8.00;;;2.85;;
30553;SDS011;17335;50.720;7.452;2023-08-07T11:28:22;6.93;;;2.30;;
30553;SDS011;17335;50.720;7.452;2023-08-07T11:30:52;9.20;;;2.85;;
30553;SDS011;17335;50.720;7.452;2023-08-07T11:33:21;11.10;;;2.67;;
30553;SDS011;17335;50.720;7.452;2023-08-07T11:35:50;9.63;;;2.42;;
30553;SDS011;17335;50.720;7.452;2023-08-07T11:38:33;16.33;;;2.28;;
30553;SDS011;17335;50.720;7.452;2023-08-07T11:41:01;6.57;;;2.15;;
30553;SDS011;17335;50.720;7.452;2023-08-07T11:43:29;8.95;;;2.20;;
30553;SDS011;17335;50.720;7.452;2023-08-07T11:45:58;10.13;;;2.50;;
30553;SDS011;17335;50.720;7.452;2023-08-07T11:48:29;9.63;;;2.30;;
30553;SDS011;17335;50.720;7.452;2023-08-07T11:50:57;8.20;;;2.30;;
30553;SDS011;17335;50.720;7.452;2023-08-07T11:53:26;10.27;;;2.03;;
30553;SDS011;17335;50.720;7.452;2023-08-07T11:58:21;9.73;;;2.30;;
30553;SDS011;17335;50.720;7.452;2023-08-07T12:00:48;5.95;;;1.73;;
30553;SDS011;17335;50.720;7.452;2023-08-07T12:05:56;4.53;;;1.70;;
30553;SDS011;17335;50.720;7.452;2023-08-07T12:08:25;8.75;;;2.28;;
30553;SDS011;17335;50.720;7.452;2023-08-07T12:10:58;4.78;;;2.05;;
30553;SDS011;17335;50.720;7.452;2023-08-07T12:13:27;5.88;;;2.35;;
30553;SDS011;17335;50.720;7.452;2023-08-07T12:15:55;6.85;;;2.30;;
30553;SDS011;17335;50.720;7.452;2023-08-07T12:18:23;5.93;;;2.20;;
30553;SDS011;17335;50.720;7.452;2023-08-07T12:20:50;5.05;;;2.53;;
30553;SDS011;17335;50.720;7.452;2023-08-07T12:23:18;7.18;;;2.10;;
30553;SDS011;17335;50.720;7.452;2023-08-07T12:25:47;4.07;;;2.00;;
30553;SDS011;17335;50.720;7.452;2023-08-07T12:28:14;7.22;;;2.03;;
30553;SDS011;17335;50.720;7.452;2023-08-07T12:30:43;9.95;;;2.28;;
30553;SDS011;17335;50.720;7.452;2023-08-07T12:33:11;3.97;;;1.75;;
30553;SDS011;17335;50.720;7.452;2023-08-07T12:35:39;6.22;;;2.30;;
30553;SDS011;17335;50.720;7.452;2023-08-07T12:38:06;4.05;;;1.80;;
30553;SDS011;17335;50.720;7.452;2023-08-07T12:40:34;7.85;;;1.80;;
30553;SDS011;17335;50.720;7.452;2023-08-07T12:43:02;8.48;;;1.95;;
30553;SDS011;17335;50.720;7.452;2023-08-07T12:45:32;8.38;;;1.73;;
30553;SDS011;17335;50.720;7.452;2023-08-07T12:48:02;9.10;;;2.13;;
30553;SDS011;17335;50.720;7.452;2023-08-07T12:50:29;6.07;;;1.70;;
30553;SDS011;17335;50.720;7.452;2023-08-07T12:52:56;6.57;;;1.90;;
30553;SDS011;17335;50.720;7.452;2023-08-07T12:55:23;5.97;;;1.73;;
30553;SDS011;17335;50.720;7.452;2023-08-07T12:57:49;3.78;;;1.83;;
30553;SDS011;17335;50.720;7.452;2023-08-07T13:00:16;7.25;;;1.70;;
30553;SDS011;17335;50.720;7.452;2023-08-07T13:02:44;5.45;;;1.75;;
30553;SDS011;17335;50.720;7.452;2023-08-07T13:05:12;4.90;;;1.83;;
30553;SDS011;17335;50.720;7.452;2023-08-07T13:07:40;4.05;;;2.03;;
30553;SDS011;17335;50.720;7.452;2023-08-07T13:10:08;5.13;;;1.92;;
30553;SDS011;17335;50.720;7.452;2023-08-07T13:12:38;5.65;;;1.92;;
30553;SDS011;17335;50.720;7.452;2023-08-07T13:15:06;4.72;;;1.70;;
30553;SDS011;17335;50.720;7.452;2023-08-07T13:17:36;4.47;;;1.52;;
30553;SDS011;17335;50.720;7.452;2023-08-07T13:20:03;5.45;;;1.70;;
30553;SDS011;17335;50.720;7.452;2023-08-07T13:22:34;3.75;;;1.67;;
30553;SDS011;17335;50.720;7.452;2023-08-07T13:25:04;6.28;;;1.90;;
30553;SDS011;17335;50.720;7.452;2023-08-07T13:27:31;6.43;;;1.95;;
30553;SDS011;17335;50.720;7.452;2023-08-07T13:29:58;5.25;;;2.25;;
30553;SDS011;17335;50.720;7.452;2023-08-07T13:32:25;6.55;;;1.60;;
30553;SDS011;17335;50.720;7.452;2023-08-07T13:34:52;4.78;;;1.83;;
30553;SDS011;17335;50.720;7.452;2023-08-07T13:37:19;3.28;;;1.60;;
30553;SDS011;17335;50.720;7.452;2023-08-07T13:39:46;4.65;;;1.42;;
30553;SDS011;17335;50.720;7.452;2023-08-07T13:42:15;4.50;;;1.52;;
30553;SDS011;17335;50.720;7.452;2023-08-07T13:44:42;9.00;;;2.17;;
30553;SDS011;17335;50.720;7.452;2023-08-07T13:47:09;3.85;;;1.60;;
30553;SDS011;17335;50.720;7.452;2023-08-07T13:49:36;4.93;;;1.90;;
30553;SDS011;17335;50.720;7.452;2023-08-07T13:52:03;4.10;;;1.60;;
30553;SDS011;17335;50.720;7.452;2023-08-07T13:54:30;6.40;;;1.83;;
30553;SDS011;17335;50.720;7.452;2023-08-07T13:56:57;5.47;;;1.88;;
30553;SDS011;17335;50.720;7.452;2023-08-07T13:59:23;4.05;;;1.83;;
30553;SDS011;17335;50.720;7.452;2023-08-07T14:01:50;5.00;;;1.90;;
30553;SDS011;17335;50.720;7.452;2023-08-07T14:04:18;4.97;;;1.83;;
30553;SDS011;17335;50.720;7.452;2023-08-07T14:06:44;5.93;;;1.88;;
30553;SDS011;17335;50.720;7.452;2023-08-07T14:09:11;4.03;;;1.80;;
30553;SDS011;17335;50.720;7.452;2023-08-07T14:11:38;5.00;;;2.20;;
30553;SDS011;17335;50.720;7.452;2023-08-07T14:14:04;4.32;;;1.90;;
30553;SDS011;17335;50.720;7.452;2023-08-07T14:16:31;6.38;;;1.95;;
30553;SDS011;17335;50.720;7.452;2023-08-07T14:18:58;5.75;;;1.90;;
30553;SDS011;17335;50.720;7.452;2023-08-07T14:21:25;5.88;;;1.65;;
30553;SDS011;17335;50.720;7.452;2023-08-07T14:23:52;6.43;;;2.08;;
30553;SDS011;17335;50.720;7.452;2023-08-07T14:26:18;3.67;;;1.92;;
30553;SDS011;17335;50.720;7.452;2023-08-07T14:28:46;10.25;;;2.22;;
30553;SDS011;17335;50.720;7.452;2023-08-07T14:31:13;8.13;;;1.67;;
30553;SDS011;17335;50.720;7.452;2023-08-07T14:33:40;5.30;;;1.92;;
30553;SDS011;17335;50.720;7.452;2023-08-07T14:36:06;4.65;;;1.75;;
30553;SDS011;17335;50.720;7.452;2023-08-07T14:38:35;8.68;;;1.98;;
30553;SDS011;17335;50.720;7.452;2023-08-07T14:41:02;5.30;;;1.80;;
30553;SDS011;17335;50.720;7.452;2023-08-07T14:43:29;4.20;;;1.92;;
30553;SDS011;17335;50.720;7.452;2023-08-07T14:45:57;9.02;;;2.65;;
30553;SDS011;17335;50.720;7.452;2023-08-07T14:48:24;4.63;;;2.10;;
30553;SDS011;17335;50.720;7.452;2023-08-07T14:50:51;7.03;;;2.42;;
30553;SDS011;17335;50.720;7.452;2023-08-07T14:53:18;6.28;;;2.17;;
30553;SDS011;17335;50.720;7.452;2023-08-07T14:55:44;6.15;;;2.15;;
30553;SDS011;17335;50.720;7.452;2023-08-07T14:58:12;5.57;;;2.45;;
30553;SDS011;17335;50.720;7.452;2023-08-07T15:00:39;5.85;;;2.38;;
30553;SDS011;17335;50.720;7.452;2023-08-07T15:03:07;7.40;;;2.50;;